createdAt,value
2022-12-23T00:01:51.254Z,10.47
2022-12-23T00:04:18.257Z,9.47
2022-12-23T00:06:45.183Z,8.63
2022-12-23T00:09:12.037Z,9.17
2022-12-23T00:12:01.690Z,9.30
2022-12-23T00:14:47.119Z,8.10
2022-12-23T00:17:29.143Z,9.07
2022-12-23T00:19:55.944Z,10.13
2022-12-23T00:22:42.748Z,9.43
2022-12-23T00:25:12.156Z,8.63
2022-12-23T00:27:42.480Z,8.97
2022-12-23T00:30:10.783Z,8.47
2022-12-23T00:32:37.615Z,8.80
2022-12-23T00:35:04.699Z,8.30
2022-12-23T00:37:33.828Z,8.10
2022-12-23T00:40:22.282Z,8.40
2022-12-23T00:42:55.587Z,9.50
2022-12-23T00:45:22.653Z,10.57
2022-12-23T00:48:08.223Z,10.57
2022-12-23T00:50:42.395Z,10.83
2022-12-23T00:53:09.330Z,11.27
2022-12-23T00:55:37.474Z,11.27
2022-12-23T00:58:13.366Z,13.00
2022-12-23T01:00:58.916Z,11.90
2022-12-23T01:03:44.530Z,11.53
2022-12-23T01:06:11.406Z,10.97
2022-12-23T01:08:38.581Z,11.47
2022-12-23T01:11:07.825Z,10.50
2022-12-23T01:13:35.031Z,10.50
2022-12-23T01:16:14.997Z,10.43
2022-12-23T01:18:43.847Z,11.37
2022-12-23T01:21:11.353Z,11.00
2022-12-23T01:23:38.272Z,12.23
2022-12-23T01:26:07.062Z,11.23
2022-12-23T01:28:36.299Z,12.10
2022-12-23T01:31:04.948Z,11.30
2022-12-23T01:33:35.530Z,11.43
2022-12-23T01:36:06.798Z,12.00
2022-12-23T01:38:34.636Z,11.40
2022-12-23T01:41:04.679Z,12.73
2022-12-23T01:43:51.987Z,11.73
2022-12-23T01:46:18.913Z,11.77
2022-12-23T01:48:50.759Z,10.47
2022-12-23T01:51:28.529Z,9.23
2022-12-23T01:53:59.678Z,7.97
2022-12-23T01:56:36.669Z,8.07
2022-12-23T01:59:11.214Z,8.20
2022-12-23T02:01:56.877Z,7.57
2022-12-23T02:04:25.727Z,7.07
2022-12-23T02:07:11.751Z,7.53
2022-12-23T02:09:40.665Z,7.17
2022-12-23T02:12:21.451Z,7.83
2022-12-23T02:15:24.976Z,8.30
2022-12-23T02:18:02.095Z,8.80
2022-12-23T02:20:34.572Z,7.50
2022-12-23T02:23:25.958Z,7.80
2022-12-23T02:25:58.582Z,8.40
2022-12-23T02:28:41.003Z,9.50
2022-12-23T02:31:55.240Z,8.87
2022-12-23T02:34:44.351Z,9.20
2022-12-23T02:37:39.316Z,10.60
2022-12-23T02:40:14.748Z,10.03
2022-12-23T02:43:20.067Z,11.03
2022-12-23T02:46:01.122Z,10.53
2022-12-23T02:48:55.224Z,11.70
2022-12-23T02:51:28.916Z,10.43
2022-12-23T02:53:59.552Z,11.33
2022-12-23T02:56:33.299Z,10.00
2022-12-23T02:59:11.298Z,9.60
2022-12-23T03:01:40.014Z,9.90
2022-12-23T03:04:07.125Z,10.33
2022-12-23T03:06:39.407Z,9.77
2022-12-23T03:09:06.845Z,9.40
2022-12-23T03:11:42.237Z,9.57
2022-12-23T03:14:17.935Z,9.80
2022-12-23T03:17:07.434Z,9.17
2022-12-23T03:19:43.808Z,7.97
2022-12-23T03:22:30.817Z,8.60
2022-12-23T03:25:16.489Z,8.70
2022-12-23T03:27:53.117Z,8.90
2022-12-23T03:30:25.205Z,9.37
2022-12-23T03:33:44.792Z,9.03
2022-12-23T03:36:18.511Z,9.10
2022-12-23T03:38:45.954Z,9.20
2022-12-23T03:41:21.807Z,9.33
2022-12-23T03:43:55.779Z,8.73
2022-12-23T03:49:33.924Z,9.13
2022-12-23T03:52:17.265Z,10.13
2022-12-23T03:54:53.796Z,8.93
2022-12-23T03:57:24.124Z,9.90
2022-12-23T03:59:51.568Z,10.20
2022-12-23T04:02:26.965Z,9.77
2022-12-23T04:05:22.282Z,10.27
2022-12-23T04:07:59.570Z,9.70
2022-12-23T04:10:27.638Z,8.90
2022-12-23T04:12:57.389Z,10.00
2022-12-23T04:15:27.266Z,9.07
2022-12-23T04:17:55.460Z,9.50
2022-12-23T04:20:22.490Z,9.30
2022-12-23T04:22:49.651Z,9.47
2022-12-23T04:25:20.187Z,9.77
2022-12-23T04:27:46.963Z,10.43
2022-12-23T04:30:14.101Z,10.30
2022-12-23T04:32:41.710Z,10.57
2022-12-23T04:35:11.926Z,10.27
2022-12-23T04:37:39.314Z,9.97
2022-12-23T04:40:07.132Z,10.33
2022-12-23T04:42:34.626Z,10.00
2022-12-23T04:45:01.449Z,10.60
2022-12-23T04:47:28.185Z,10.87
2022-12-23T04:49:55.068Z,11.20
2022-12-23T04:52:22.629Z,10.57
2022-12-23T04:54:49.682Z,11.00
2022-12-23T04:57:19.555Z,10.83
2022-12-23T04:59:46.804Z,10.53
2022-12-23T05:02:13.651Z,10.87
2022-12-23T05:04:40.694Z,11.37
2022-12-23T05:07:07.584Z,10.50
2022-12-23T05:09:34.467Z,10.73
2022-12-23T05:12:01.241Z,10.33
2022-12-23T05:14:28.076Z,9.60
2022-12-23T05:17:02.157Z,9.77
2022-12-23T05:19:32.151Z,10.50
2022-12-23T05:21:58.957Z,9.60
2022-12-23T05:24:25.760Z,9.37
2022-12-23T05:26:59.489Z,9.13
2022-12-23T05:29:27.115Z,8.50
2022-12-23T05:31:57.266Z,7.70
2022-12-23T05:34:24.134Z,7.70
2022-12-23T05:36:50.944Z,7.47
2022-12-23T05:39:17.995Z,6.80
2022-12-23T05:41:45.830Z,7.27
2022-12-23T05:44:12.577Z,7.53
2022-12-23T05:46:39.365Z,7.27
2022-12-23T05:49:06.135Z,6.83
2022-12-23T05:51:32.887Z,6.80
2022-12-23T05:53:59.744Z,7.17
2022-12-23T05:56:26.494Z,6.70
2022-12-23T05:58:53.362Z,6.80
2022-12-23T06:01:20.144Z,6.53
2022-12-23T06:03:47.067Z,6.30
2022-12-23T06:06:14.163Z,6.67
2022-12-23T06:08:41.019Z,6.13
2022-12-23T06:11:07.943Z,6.30
2022-12-23T06:13:34.687Z,7.00
2022-12-23T06:16:01.563Z,7.30
2022-12-23T06:18:28.458Z,8.53
2022-12-23T06:20:55.195Z,8.53
2022-12-23T06:23:21.945Z,9.53
2022-12-23T06:25:48.729Z,9.80
2022-12-23T06:28:15.540Z,10.17
2022-12-23T06:30:42.487Z,10.83
2022-12-23T06:33:09.205Z,11.47
2022-12-23T06:35:35.879Z,11.33
2022-12-23T06:38:03.329Z,10.47
2022-12-23T06:40:32.216Z,12.57
2022-12-23T06:42:58.940Z,12.27
2022-12-23T06:45:25.805Z,12.27
2022-12-23T06:47:52.784Z,12.47
2022-12-23T06:50:20.583Z,13.37
2022-12-23T06:52:49.004Z,12.13
2022-12-23T06:55:16.136Z,12.60
2022-12-23T06:57:42.954Z,13.47
2022-12-23T07:00:10.773Z,13.77
2022-12-23T07:02:37.529Z,13.63
2022-12-23T07:05:04.600Z,14.10
2022-12-23T07:07:33.329Z,15.37
2022-12-23T07:10:00.292Z,14.73
2022-12-23T07:12:27.124Z,14.63
2022-12-23T07:14:54.039Z,15.57
2022-12-23T07:17:20.835Z,15.10
2022-12-23T07:19:47.565Z,14.17
2022-12-23T07:22:14.357Z,14.13
2022-12-23T07:24:41.145Z,14.00
2022-12-23T07:27:07.860Z,14.17
2022-12-23T07:29:34.645Z,14.67
2022-12-23T07:32:02.661Z,14.33
2022-12-23T07:34:29.565Z,14.57
2022-12-23T07:36:56.503Z,15.43
2022-12-23T07:39:23.284Z,16.53
2022-12-23T07:41:59.002Z,16.43
2022-12-23T07:44:36.046Z,16.03
2022-12-23T07:47:02.968Z,17.13
2022-12-23T07:49:29.696Z,16.57
2022-12-23T07:51:56.413Z,16.40
2022-12-23T07:54:23.480Z,17.20
2022-12-23T07:56:50.342Z,18.17
2022-12-23T07:59:17.277Z,17.93
2022-12-23T08:01:44.271Z,17.10
2022-12-23T08:04:11.115Z,16.70
2022-12-23T08:06:38.386Z,18.20
2022-12-23T08:09:09.445Z,17.27
2022-12-23T08:11:36.136Z,17.07
2022-12-23T08:14:06.892Z,16.27
2022-12-23T08:16:43.121Z,16.50
2022-12-23T08:19:10.477Z,16.40
2022-12-23T08:21:37.283Z,17.73
2022-12-23T08:24:07.108Z,16.33
2022-12-23T08:26:33.925Z,15.00
2022-12-23T08:29:01.092Z,16.63
2022-12-23T08:31:33.207Z,15.33
2022-12-23T08:34:01.131Z,16.13
2022-12-23T08:36:31.768Z,16.53
2022-12-23T08:39:00.414Z,15.37
2022-12-23T08:41:30.746Z,16.23
2022-12-23T08:44:00.433Z,16.57
2022-12-23T08:46:28.200Z,19.20
2022-12-23T08:48:55.162Z,19.90
2022-12-23T08:51:23.469Z,18.80
2022-12-23T08:53:56.242Z,19.83
2022-12-23T08:56:31.959Z,19.93
2022-12-23T08:58:58.943Z,19.63
2022-12-23T09:01:28.652Z,20.40
2022-12-23T09:03:56.551Z,20.47
2022-12-23T09:06:30.457Z,22.40
2022-12-23T09:08:58.110Z,23.50
2022-12-23T09:11:28.015Z,21.93
2022-12-23T09:13:56.058Z,22.07
2022-12-23T09:16:23.501Z,23.33
2022-12-23T09:18:50.375Z,23.93
2022-12-23T09:21:20.397Z,24.17
2022-12-23T09:23:47.564Z,25.90
2022-12-23T09:26:27.195Z,26.27
2022-12-23T09:28:54.840Z,25.60
2022-12-23T09:31:22.597Z,27.43
2022-12-23T09:33:52.322Z,28.27
2022-12-23T09:36:20.261Z,26.63
2022-12-23T09:38:48.286Z,26.07
2022-12-23T09:41:35.267Z,25.60
2022-12-23T09:44:32.483Z,24.80
2022-12-23T09:47:06.342Z,24.63
2022-12-23T09:49:34.393Z,25.17
2022-12-23T09:52:04.697Z,24.00
2022-12-23T09:54:40.665Z,23.33
2022-12-23T09:57:23.072Z,25.23
2022-12-23T09:59:52.965Z,22.87
2022-12-23T10:02:38.011Z,23.33
2022-12-23T10:05:21.219Z,22.93
2022-12-23T10:08:06.768Z,22.23
2022-12-23T10:10:49.420Z,22.43
2022-12-23T10:13:43.954Z,20.97
2022-12-23T10:16:19.394Z,21.30
2022-12-23T10:19:20.645Z,19.23
2022-12-23T10:22:03.003Z,18.17
2022-12-23T10:24:48.623Z,17.87
2022-12-23T10:27:40.069Z,16.30
2022-12-23T10:33:15.242Z,14.93
2022-12-23T10:36:12.854Z,15.33
2022-12-23T10:38:44.493Z,13.70
2022-12-23T10:41:32.508Z,15.20
2022-12-23T10:44:25.411Z,13.10
2022-12-23T10:47:24.196Z,14.27
2022-12-23T10:50:11.403Z,12.53
2022-12-23T10:52:42.885Z,12.67
2022-12-23T10:55:29.791Z,12.23
2022-12-23T10:58:12.218Z,10.60
2022-12-23T11:00:42.909Z,10.83
2022-12-23T11:03:23.985Z,11.33
2022-12-23T11:05:54.183Z,10.67
2022-12-23T11:08:22.724Z,10.70
2022-12-23T11:10:49.836Z,11.23
2022-12-23T11:13:34.088Z,11.23
2022-12-23T11:16:22.574Z,9.83
2022-12-23T11:19:13.923Z,10.93
2022-12-23T11:22:00.134Z,10.20
2022-12-23T11:24:37.954Z,11.30
2022-12-23T11:27:17.032Z,11.30
2022-12-23T11:29:50.670Z,10.97
2022-12-23T11:35:29.015Z,10.53
2022-12-23T11:37:57.660Z,12.20
2022-12-23T11:40:38.722Z,11.47
2022-12-23T11:43:12.936Z,11.47
2022-12-23T11:45:39.718Z,10.97
2022-12-23T11:48:26.253Z,11.50
2022-12-23T11:51:03.891Z,11.27
2022-12-23T11:53:34.968Z,11.83
2022-12-23T11:56:08.863Z,12.13
2022-12-23T11:58:46.600Z,11.80
2022-12-23T12:01:23.200Z,10.43
2022-12-23T12:04:17.001Z,11.03
2022-12-23T12:06:51.131Z,11.40
2022-12-23T12:09:21.964Z,11.20
2022-12-23T12:12:06.311Z,10.93
2022-12-23T12:14:42.990Z,11.07
2022-12-23T12:17:15.963Z,10.70
2022-12-23T12:19:58.328Z,11.37
2022-12-23T12:22:40.614Z,10.63
2022-12-23T12:25:37.951Z,11.60
2022-12-23T12:28:16.350Z,10.90
2022-12-23T12:31:03.386Z,10.93
2022-12-23T12:33:39.588Z,10.60
2022-12-23T12:36:30.803Z,11.93
2022-12-23T12:38:59.943Z,11.13
2022-12-23T12:41:35.659Z,10.00
2022-12-23T12:44:24.276Z,10.30
2022-12-23T12:46:57.245Z,11.00
2022-12-23T12:49:45.063Z,10.33
2022-12-23T12:52:15.921Z,10.43
2022-12-23T12:55:13.736Z,10.23
2022-12-23T12:57:41.181Z,9.50
2022-12-23T13:00:20.348Z,9.07
2022-12-23T13:03:00.186Z,9.73
2022-12-23T13:06:04.720Z,8.90
2022-12-23T13:08:54.607Z,9.07
2022-12-23T13:14:59.224Z,8.93
2022-12-23T13:17:33.915Z,8.27
2022-12-23T13:20:16.004Z,8.80
2022-12-23T13:22:45.415Z,9.20
2022-12-23T13:25:21.824Z,9.23
2022-12-23T13:28:00.845Z,9.43
2022-12-23T13:30:36.595Z,8.87
2022-12-23T13:33:36.852Z,9.10
2022-12-23T13:36:37.943Z,9.83
2022-12-23T13:39:30.959Z,8.80
2022-12-23T13:42:05.950Z,8.70
2022-12-23T13:44:37.833Z,9.57
2022-12-23T13:47:40.278Z,8.43
2022-12-23T13:50:12.189Z,8.10
2022-12-23T13:53:03.228Z,8.30
2022-12-23T13:55:58.030Z,7.80
2022-12-23T13:58:27.176Z,8.23
2022-12-23T14:01:09.277Z,7.30
2022-12-23T14:03:38.012Z,8.07
2022-12-23T14:06:23.661Z,8.00
2022-12-23T14:08:52.296Z,8.43
2022-12-23T14:11:29.642Z,8.67
2022-12-23T14:14:00.350Z,8.23
2022-12-23T14:16:30.178Z,7.17
2022-12-23T14:19:12.124Z,7.80
2022-12-23T14:22:23.519Z,7.10
2022-12-23T14:25:11.447Z,6.10
2022-12-23T14:27:54.965Z,7.17
2022-12-23T14:30:35.894Z,6.47
2022-12-23T14:33:13.829Z,6.83
2022-12-23T14:35:42.794Z,5.73
2022-12-23T14:38:15.762Z,6.90
2022-12-23T14:40:42.537Z,7.23
2022-12-23T14:43:32.895Z,6.40
2022-12-23T14:46:05.059Z,6.13
2022-12-23T14:49:09.693Z,6.07
2022-12-23T14:51:40.249Z,6.03
2022-12-23T14:54:06.942Z,5.93
2022-12-23T14:56:39.879Z,4.50
2022-12-23T14:59:27.387Z,4.70
2022-12-23T15:01:58.385Z,4.40
2022-12-23T15:04:47.611Z,4.30
2022-12-23T15:07:35.607Z,4.23
2022-12-23T15:10:08.610Z,4.10
2022-12-23T15:12:38.561Z,4.17
2022-12-23T15:15:19.263Z,4.23
2022-12-23T15:17:48.429Z,4.13
2022-12-23T15:20:23.408Z,4.53
2022-12-23T15:22:50.505Z,5.03
2022-12-23T15:25:24.187Z,4.97
2022-12-23T15:27:57.329Z,4.83
2022-12-23T15:30:30.557Z,4.37
2022-12-23T15:33:01.412Z,5.00
2022-12-23T15:35:32.348Z,5.00
2022-12-23T15:38:01.117Z,4.80
2022-12-23T15:40:37.042Z,5.80
2022-12-23T15:43:19.701Z,5.40
2022-12-23T15:45:46.879Z,5.87
2022-12-23T15:48:27.548Z,6.07
2022-12-23T15:50:58.892Z,5.53
2022-12-23T15:53:32.124Z,6.60
2022-12-23T15:56:03.503Z,6.90
2022-12-23T15:58:33.772Z,7.07
2022-12-23T16:01:01.571Z,6.87
2022-12-23T16:03:38.925Z,7.80
2022-12-23T16:06:20.544Z,7.90
2022-12-23T16:09:06.350Z,7.80
2022-12-23T16:11:59.652Z,7.43
2022-12-23T16:14:42.292Z,8.07
2022-12-23T16:17:09.064Z,9.07
2022-12-23T16:20:34.162Z,8.67
2022-12-23T16:23:08.426Z,8.90
2022-12-23T16:25:37.886Z,10.07
2022-12-23T16:28:21.582Z,9.57
2022-12-23T16:30:49.752Z,10.87
2022-12-23T16:33:41.792Z,10.03
2022-12-23T16:36:21.373Z,11.17
2022-12-23T16:38:49.994Z,10.77
2022-12-23T16:41:17.295Z,10.50
2022-12-23T16:43:51.584Z,10.50
2022-12-23T16:46:20.749Z,8.67
2022-12-23T16:49:00.478Z,7.77
2022-12-23T16:51:32.326Z,6.93
2022-12-23T16:53:59.278Z,6.67
2022-12-23T16:56:36.472Z,5.37
2022-12-23T16:59:03.873Z,4.80
2022-12-23T17:01:35.013Z,5.67
2022-12-23T17:04:05.118Z,5.63
2022-12-23T17:06:32.024Z,5.50
2022-12-23T17:08:58.785Z,4.77
2022-12-23T17:11:45.029Z,5.50
2022-12-23T17:14:23.512Z,5.40
2022-12-23T17:16:51.547Z,4.33
2022-12-23T17:19:25.284Z,5.23
2022-12-23T17:22:02.039Z,4.47
2022-12-23T17:24:28.946Z,4.97
2022-12-23T17:26:59.108Z,4.10
2022-12-23T17:29:28.094Z,4.70
2022-12-23T17:31:54.862Z,4.60
2022-12-23T17:34:23.452Z,5.53
2022-12-23T17:36:51.355Z,4.93
2022-12-23T17:39:19.401Z,5.00
2022-12-23T17:41:46.395Z,5.97
2022-12-23T17:44:17.463Z,4.93
2022-12-23T17:46:45.559Z,6.23
2022-12-23T17:49:12.657Z,5.53
2022-12-23T17:51:40.358Z,5.70
2022-12-23T17:54:07.226Z,4.90
2022-12-23T17:56:34.047Z,5.07
2022-12-23T17:59:00.855Z,5.23
2022-12-23T18:01:30.021Z,4.20
2022-12-23T18:03:58.643Z,5.43
2022-12-23T18:06:27.556Z,4.73
2022-12-23T18:08:54.431Z,4.27
2022-12-23T18:11:33.704Z,4.77
2022-12-23T18:14:02.116Z,5.73
2022-12-23T18:16:29.332Z,4.73
2022-12-23T18:18:56.583Z,4.67
2022-12-23T18:21:26.601Z,4.77
2022-12-23T18:23:56.661Z,4.70
2022-12-23T18:26:23.943Z,5.13
2022-12-23T18:28:54.479Z,5.70
2022-12-23T18:31:24.103Z,4.97
2022-12-23T18:33:54.231Z,4.73
2022-12-23T18:36:24.376Z,4.50
2022-12-23T18:38:52.204Z,5.03
2022-12-23T18:41:20.130Z,4.47
2022-12-23T18:43:47.270Z,4.90
2022-12-23T18:46:14.035Z,6.03
2022-12-23T18:48:40.905Z,5.90
2022-12-23T18:51:07.705Z,5.27
2022-12-23T18:53:34.449Z,5.43
2022-12-23T18:56:01.238Z,5.10
2022-12-23T18:58:27.920Z,5.60
2022-12-23T19:00:55.037Z,4.47
2022-12-23T19:03:30.383Z,4.47
2022-12-23T19:06:00.316Z,6.57
2022-12-23T19:08:27.968Z,5.40
2022-12-23T19:10:55.991Z,4.47
2022-12-23T19:13:23.177Z,5.57
2022-12-23T19:15:50.477Z,5.07
2022-12-23T19:18:19.901Z,4.80
2022-12-23T19:20:51.546Z,5.40
2022-12-23T19:23:20.900Z,5.53
2022-12-23T19:25:54.490Z,4.77
2022-12-23T19:28:22.183Z,5.93
2022-12-23T19:30:53.220Z,4.53
2022-12-23T19:33:20.027Z,4.80
2022-12-23T19:35:46.746Z,4.80
2022-12-23T19:38:13.470Z,4.80
2022-12-23T19:40:40.626Z,5.00
2022-12-23T19:43:07.725Z,5.27
2022-12-23T19:45:34.580Z,5.40
2022-12-23T19:48:01.316Z,4.93
2022-12-23T19:50:28.223Z,4.93
2022-12-23T19:52:56.211Z,3.93
2022-12-23T19:55:23.705Z,4.80
2022-12-23T19:57:50.545Z,5.07
2022-12-23T20:00:17.384Z,5.37
2022-12-23T20:02:44.237Z,4.23
2022-12-23T20:05:11.021Z,4.83
2022-12-23T20:07:37.873Z,4.90
2022-12-23T20:10:05.815Z,4.83
2022-12-23T20:12:32.765Z,4.30
2022-12-23T20:14:59.679Z,4.67
2022-12-23T20:17:26.378Z,5.60
2022-12-23T20:19:53.101Z,4.97
2022-12-23T20:22:19.825Z,4.60
2022-12-23T20:24:46.510Z,4.50
2022-12-23T20:27:15.708Z,3.93
2022-12-23T20:29:42.833Z,4.47
2022-12-23T20:32:09.547Z,5.40
2022-12-23T20:34:39.777Z,4.80
2022-12-23T20:37:07.368Z,4.60
2022-12-23T20:39:34.403Z,4.03
2022-12-23T20:42:01.180Z,4.03
2022-12-23T20:44:37.024Z,4.57
2022-12-23T20:47:06.252Z,3.73
2022-12-23T20:49:36.100Z,4.50
2022-12-23T20:52:05.794Z,3.70
2022-12-23T20:54:35.355Z,3.73
2022-12-23T20:57:02.849Z,4.07
2022-12-23T20:59:29.578Z,2.90
2022-12-23T21:01:59.118Z,4.33
2022-12-23T21:04:48.063Z,3.33
2022-12-23T21:07:15.264Z,3.97
2022-12-23T21:09:42.005Z,3.00
2022-12-23T21:12:08.807Z,3.87
2022-12-23T21:14:35.986Z,2.80
2022-12-23T21:17:03.837Z,3.27
2022-12-23T21:19:30.655Z,2.87
2022-12-23T21:21:57.632Z,3.77
2022-12-23T21:24:24.412Z,3.17
2022-12-23T21:26:56.909Z,3.40
2022-12-23T21:29:24.913Z,3.67
2022-12-23T21:31:51.860Z,3.60
2022-12-23T21:34:18.704Z,3.33
2022-12-23T21:36:45.523Z,3.17
2022-12-23T21:39:16.816Z,3.33
2022-12-23T21:41:44.226Z,3.83
2022-12-23T21:44:14.321Z,3.30
2022-12-23T21:46:41.203Z,3.50
2022-12-23T21:49:07.947Z,3.43
2022-12-23T21:51:40.192Z,3.23
2022-12-23T21:54:09.714Z,3.23
2022-12-23T21:56:37.462Z,3.33
2022-12-23T21:59:13.161Z,3.40
2022-12-23T22:01:41.022Z,3.50
2022-12-23T22:04:07.899Z,4.10
2022-12-23T22:06:37.483Z,2.97
2022-12-23T22:09:08.073Z,3.30
2022-12-23T22:11:36.531Z,2.60
2022-12-23T22:14:05.407Z,3.27
2022-12-23T22:16:33.524Z,3.13
2022-12-23T22:19:01.565Z,3.50
2022-12-23T22:21:30.802Z,3.60
2022-12-23T22:24:00.329Z,3.47
2022-12-23T22:26:30.172Z,3.53
2022-12-23T22:29:00.099Z,3.23
2022-12-23T22:31:47.027Z,3.70
2022-12-23T22:34:31.302Z,4.67
2022-12-23T22:37:00.864Z,4.30
2022-12-23T22:39:27.838Z,3.70
2022-12-23T22:41:54.550Z,4.03
2022-12-23T22:44:21.759Z,4.30
2022-12-23T22:46:51.026Z,3.73
2022-12-23T22:49:17.922Z,3.87
2022-12-23T22:51:48.230Z,3.53
2022-12-23T22:54:14.996Z,3.83
2022-12-23T22:56:42.341Z,3.83
2022-12-23T22:59:20.501Z,4.20
2022-12-23T23:01:48.991Z,5.00
2022-12-23T23:04:15.879Z,3.50
2022-12-23T23:06:42.886Z,3.60
2022-12-23T23:09:14.625Z,3.93
2022-12-23T23:11:41.850Z,3.70
2022-12-23T23:14:08.613Z,3.77
2022-12-23T23:16:35.446Z,4.03
2022-12-23T23:19:06.191Z,3.70
2022-12-23T23:21:33.425Z,4.17
2022-12-23T23:24:00.260Z,3.93
2022-12-23T23:26:29.852Z,3.97
2022-12-23T23:28:56.913Z,3.20
2022-12-23T23:34:11.475Z,4.17
2022-12-23T23:36:38.518Z,4.27
2022-12-23T23:39:05.402Z,3.40
2022-12-23T23:41:32.418Z,3.63
2022-12-23T23:43:59.202Z,3.87
2022-12-23T23:46:25.984Z,3.00
2022-12-23T23:48:56.123Z,3.70
2022-12-23T23:51:23.128Z,3.57
2022-12-23T23:53:49.857Z,3.53
2022-12-23T23:56:22.077Z,5.60
2022-12-23T23:58:54.104Z,3.63
